Time;durP1;ratioP1;P1;durP2;ratioP2;P2;SDS_P1;SDS_P2;PMS_P1;PMS_P2;Temp;Humidity;BMP_temperature;BMP_pressure;BME280_temperature;BME280_humidity;BME280_pressure;Samples;Min_cycle;Max_cycle;Signal;HPM_P1;HPM_P2
2023/10/10 00:01:45;;;;;;;11.93;3.47;;;13.90;99.90;;;;;;4983986;28;20687;-37
2023/10/10 00:04:11;;;;;;;7.20;2.88;;;13.90;99.90;;;;;;4982346;28;20672;-40
2023/10/10 00:06:38;;;;;;;12.45;3.17;;;13.70;99.90;;;;;;4980980;28;20046;-40
2023/10/10 00:09:09;;;;;;;9.48;3.25;;;13.70;99.90;;;;;;4982227;28;20931;-40
2023/10/10 00:11:36;;;;;;;10.60;3.45;;;13.60;99.90;;;;;;4984484;28;20074;-38
2023/10/10 00:14:05;;;;;;;8.10;3.10;;;13.60;99.90;;;;;;4980319;28;20038;-36
2023/10/10 00:16:38;;;;;;;10.75;3.70;;;13.50;99.90;;;;;;4983371;28;20137;-40
2023/10/10 00:19:18;;;;;;;8.98;3.22;;;13.40;99.90;;;;;;4982342;28;20397;-39
2023/10/10 00:21:45;;;;;;;9.95;3.65;;;13.40;99.90;;;;;;4978274;28;20129;-38
2023/10/10 00:24:12;;;;;;;6.43;3.20;;;13.50;99.90;;;;;;4979225;28;20018;-40
2023/10/10 00:26:43;;;;;;;7.15;2.92;;;13.50;99.90;;;;;;4982239;28;20113;-39
2023/10/10 00:29:09;;;;;;;7.97;3.38;;;13.50;99.90;;;;;;4982737;28;20511;-39
2023/10/10 00:31:43;;;;;;;11.18;3.42;;;13.50;99.90;;;;;;4986387;28;20058;-40
2023/10/10 00:34:50;;;;;;;7.70;2.83;;;13.50;99.90;;;;;;4985369;28;20061;-39
2023/10/10 00:37:21;;;;;;;6.80;3.15;;;13.50;99.90;;;;;;4988553;28;20042;-40
2023/10/10 00:39:52;;;;;;;7.60;3.40;;;13.60;99.90;;;;;;4976737;28;20042;-39
2023/10/10 00:42:36;;;;;;;4.78;2.63;;;13.50;99.90;;;;;;4982393;28;20038;-40
2023/10/10 00:45:14;;;;;;;9.45;3.55;;;13.50;99.90;;;;;;4985476;28;20030;-38
2023/10/10 00:47:43;;;;;;;11.20;3.47;;;13.40;99.90;;;;;;4986315;28;20118;-34
2023/10/10 00:50:24;;;;;;;13.48;3.63;;;13.40;99.90;;;;;;4980481;28;20066;-38
2023/10/10 00:53:00;;;;;;;7.30;3.55;;;13.40;99.90;;;;;;4976878;28;20025;-40
2023/10/10 00:55:33;;;;;;;7.63;3.30;;;13.40;99.90;;;;;;4986443;28;20026;-37
2023/10/10 00:58:00;;;;;;;8.00;3.50;;;13.20;99.90;;;;;;4984691;28;20531;-39
2023/10/10 01:00:29;;;;;;;8.98;3.67;;;13.10;99.90;;;;;;4980851;28;20476;-36
2023/10/10 01:02:57;;;;;;;8.40;3.00;;;13.10;99.90;;;;;;4984386;28;20026;-32
2023/10/10 01:05:39;;;;;;;4.38;2.75;;;13.00;99.90;;;;;;4980883;28;20042;-33
2023/10/10 01:08:07;;;;;;;5.43;3.25;;;13.00;99.90;;;;;;4987628;28;20049;-32
2023/10/10 01:10:37;;;;;;;6.50;2.70;;;13.00;99.90;;;;;;4840413;28;21613;-33
2023/10/10 01:13:03;;;;;;;6.47;3.50;;;13.00;99.90;;;;;;4988361;28;20030;-30
2023/10/10 01:15:35;;;;;;;8.73;2.70;;;13.00;99.90;;;;;;4982786;28;20632;-30
2023/10/10 01:18:00;;;;;;;8.65;3.47;;;13.00;99.90;;;;;;4985418;28;20058;-31
2023/10/10 01:20:45;;;;;;;7.15;2.85;;;12.90;99.90;;;;;;4977355;28;20511;-32
2023/10/10 01:23:12;;;;;;;11.15;3.47;;;12.90;99.90;;;;;;4981067;28;20022;-29
2023/10/10 01:28:13;;;;;;;10.20;3.50;;;12.80;99.90;;;;;;4986821;28;20551;-33
2023/10/10 01:30:57;;;;;;;9.48;3.10;;;12.80;99.90;;;;;;4989226;28;20386;-30
2023/10/10 01:33:35;;;;;;;5.95;3.38;;;12.70;99.90;;;;;;4985406;28;20026;-29
2023/10/10 01:36:03;;;;;;;14.82;4.28;;;12.60;99.90;;;;;;4987030;28;20035;-30
2023/10/10 01:38:56;;;;;;;7.07;2.90;;;12.50;99.90;;;;;;4982549;28;20105;-33
2023/10/10 01:41:41;;;;;;;5.82;3.03;;;12.40;99.90;;;;;;4983986;28;20492;-29
2023/10/10 01:44:11;;;;;;;7.80;3.17;;;12.30;99.90;;;;;;4986997;28;20019;-33
2023/10/10 01:46:37;;;;;;;6.20;2.90;;;12.00;99.90;;;;;;4990174;28;20037;-30
2023/10/10 01:49:03;;;;;;;8.77;3.25;;;11.80;99.90;;;;;;4992626;28;20361;-30
2023/10/10 01:51:33;;;;;;;5.50;2.83;;;11.80;99.90;;;;;;4983009;28;20088;-30
2023/10/10 01:53:59;;;;;;;6.80;2.78;;;11.70;99.90;;;;;;4989753;28;20587;-30
2023/10/10 01:56:28;;;;;;;4.40;2.90;;;11.60;99.90;;;;;;4984601;28;20540;-33
2023/10/10 01:58:54;;;;;;;7.00;3.10;;;11.60;99.90;;;;;;4985301;28;20456;-36
2023/10/10 02:01:23;;;;;;;8.43;3.33;;;11.50;99.90;;;;;;4983991;28;20027;-35
2023/10/10 02:03:50;;;;;;;9.45;3.40;;;11.60;99.90;;;;;;4981629;28;20097;-30
2023/10/10 02:06:27;;;;;;;7.63;3.25;;;11.60;99.90;;;;;;4984073;28;20022;-31
2023/10/10 02:09:00;;;;;;;9.32;3.53;;;11.60;99.90;;;;;;4986225;28;20043;-30
2023/10/10 02:11:26;;;;;;;9.23;3.22;;;11.60;99.90;;;;;;4980699;28;20061;-36
2023/10/10 02:13:53;;;;;;;7.95;3.60;;;11.50;99.90;;;;;;4981787;28;20696;-39
2023/10/10 02:16:23;;;;;;;9.38;3.45;;;11.50;99.90;;;;;;4984927;28;20204;-40
2023/10/10 02:18:52;;;;;;;9.18;3.15;;;11.60;99.90;;;;;;4983110;28;20030;-39
2023/10/10 02:21:31;;;;;;;4.68;2.90;;;11.50;99.90;;;;;;4982763;28;20118;-32
2023/10/10 02:24:19;;;;;;;7.60;3.08;;;11.40;99.90;;;;;;4985394;28;20062;-32
2023/10/10 02:26:51;;;;;;;8.00;3.08;;;11.40;99.90;;;;;;4984015;28;20421;-32
2023/10/10 02:29:21;;;;;;;8.57;3.17;;;11.50;99.90;;;;;;4986253;28;20382;-32
2023/10/10 02:32:06;;;;;;;7.30;3.47;;;11.40;99.90;;;;;;4977930;28;20048;-33
2023/10/10 02:34:34;;;;;;;8.15;3.60;;;11.50;99.90;;;;;;4983120;28;20456;-32
2023/10/10 02:39:55;;;;;;;10.18;3.47;;;11.60;99.90;;;;;;4979241;28;19917;-34
2023/10/10 02:42:23;;;;;;;12.80;3.88;;;11.50;99.90;;;;;;4986695;28;20129;-32
2023/10/10 02:44:57;;;;;;;6.70;3.13;;;11.40;99.90;;;;;;4981740;28;20038;-33
2023/10/10 02:47:33;;;;;;;5.53;3.15;;;11.40;99.90;;;;;;4985911;28;20072;-31
2023/10/10 02:50:10;;;;;;;8.82;3.05;;;11.40;99.90;;;;;;4986175;28;20400;-32
2023/10/10 02:52:39;;;;;;;8.82;3.22;;;11.30;99.90;;;;;;4982754;28;20030;-33
2023/10/10 02:55:22;;;;;;;8.10;3.40;;;11.40;99.90;;;;;;4976332;28;20500;-32
2023/10/10 02:57:48;;;;;;;8.35;3.42;;;11.40;99.90;;;;;;4980672;28;20030;-33
2023/10/10 03:02:54;;;;;;;3.97;1.80;;;11.30;99.90;;;;;;4980990;28;20045;-33
2023/10/10 03:05:39;;;;;;;4.22;2.10;;;11.40;99.90;;;;;;4985447;28;20035;-33
2023/10/10 03:08:13;;;;;;;5.00;2.85;;;11.30;99.90;;;;;;4984726;28;20476;-34
2023/10/10 03:10:53;;;;;;;4.90;3.10;;;11.30;99.90;;;;;;4974007;28;20132;-33
2023/10/10 03:16:59;;;;;;;5.28;3.10;;;11.30;99.90;;;;;;4983396;28;20038;-33
2023/10/10 03:21:51;;;;;;;8.65;3.17;;;11.30;99.90;;;;;;4979767;28;20034;-37
2023/10/10 03:29:20;;;;;;;6.10;3.42;;;11.30;99.90;;;;;;4983092;28;20031;-39
2023/10/10 03:31:49;;;;;;;6.57;3.00;;;11.30;99.90;;;;;;4985749;28;20622;-30
2023/10/10 03:36:44;;;;;;;4.55;1.83;;;11.20;99.90;;;;;;4985011;28;20029;-31
2023/10/10 03:39:24;;;;;;;1.60;1.48;;;11.10;99.90;;;;;;4984636;28;20042;-29
2023/10/10 05:23:47;;;;;;;5.88;2.63;;;10.40;99.90;;;;;;4983762;28;20034;-38
2023/10/10 05:26:14;;;;;;;8.98;3.10;;;10.40;99.90;;;;;;4983270;28;20034;-38
2023/10/10 05:28:40;;;;;;;5.78;3.33;;;10.40;99.90;;;;;;4989571;28;20043;-40
2023/10/10 05:31:09;;;;;;;5.80;3.22;;;10.50;99.90;;;;;;4983368;28;20031;-37
2023/10/10 05:33:36;;;;;;;7.47;3.55;;;10.40;99.90;;;;;;4978658;28;20030;-40
2023/10/10 05:36:09;;;;;;;6.40;3.60;;;10.50;99.90;;;;;;4987438;28;20097;-41
2023/10/10 05:38:39;;;;;;;12.32;4.60;;;10.50;99.90;;;;;;4987850;28;20034;-40
2023/10/10 05:41:06;;;;;;;8.38;5.03;;;10.50;99.90;;;;;;4990060;28;20484;-38
2023/10/10 05:43:35;;;;;;;9.00;4.50;;;10.50;99.90;;;;;;4978984;28;20030;-40
2023/10/10 05:46:03;;;;;;;7.22;3.15;;;10.50;99.90;;;;;;4984772;28;20034;-40
2023/10/10 05:48:31;;;;;;;;;;;10.40;99.90;;;;;;4983886;28;20047;-39
2023/10/10 05:50:59;;;;;;;6.72;3.25;;;10.50;99.90;;;;;;4986950;28;19921;-39
2023/10/10 05:53:26;;;;;;;6.13;3.75;;;10.50;99.90;;;;;;4977526;28;20038;-33
2023/10/10 05:55:58;;;;;;;7.45;3.20;;;10.50;99.90;;;;;;4982511;28;20439;-35
2023/10/10 05:58:24;;;;;;;7.22;3.58;;;10.50;99.90;;;;;;4984710;28;20495;-39
2023/10/10 06:00:50;;;;;;;8.77;3.85;;;10.50;99.90;;;;;;4982033;28;20062;-41
2023/10/10 06:03:18;;;;;;;8.68;3.78;;;10.40;99.90;;;;;;4994033;28;20054;-39
2023/10/10 06:05:49;;;;;;;;;;;10.50;99.90;;;;;;4981204;28;20577;-40
2023/10/10 06:08:15;;;;;;;9.30;3.47;;;10.50;99.90;;;;;;4982787;28;20009;-38
2023/10/10 06:10:41;;;;;;;6.28;3.08;;;10.40;99.90;;;;;;4982876;28;20623;-33
2023/10/10 06:13:07;;;;;;;9.13;3.53;;;10.40;99.90;;;;;;4983337;28;20107;-36
2023/10/10 06:15:34;;;;;;;6.90;4.22;;;10.50;99.90;;;;;;4982059;28;20034;-37
2023/10/10 06:18:13;;;;;;;9.00;3.72;;;10.50;99.90;;;;;;4981102;28;20056;-41
2023/10/10 06:20:43;;;;;;;8.27;4.15;;;10.40;99.90;;;;;;4984920;28;20392;-37
2023/10/10 06:23:11;;;;;;;7.22;3.85;;;10.50;99.90;;;;;;4977583;28;20114;-39
2023/10/10 06:25:37;;;;;;;7.30;4.00;;;10.60;99.90;;;;;;4989905;28;20042;-40
2023/10/10 06:28:06;;;;;;;6.45;3.03;;;10.60;99.90;;;;;;4985765;28;20778;-36
2023/10/10 06:30:37;;;;;;;10.73;3.78;;;10.50;99.90;;;;;;4983311;28;20034;-41
2023/10/10 06:33:15;;;;;;;5.35;2.83;;;10.50;99.90;;;;;;4977765;28;20062;-40
2023/10/10 06:35:52;;;;;;;4.28;2.85;;;10.40;99.90;;;;;;4978391;28;20031;-32
2023/10/10 06:38:23;;;;;;;4.30;2.67;;;10.40;99.90;;;;;;4978608;28;20062;-41
2023/10/10 06:40:53;;;;;;;10.15;3.30;;;10.40;99.90;;;;;;4980176;28;20121;-40
2023/10/10 06:43:22;;;;;;;6.95;3.20;;;10.50;99.90;;;;;;4980156;28;20027;-40
2023/10/10 06:45:54;;;;;;;5.78;3.15;;;10.60;99.90;;;;;;4983832;28;20089;-41
2023/10/10 06:48:25;;;;;;;9.45;3.75;;;10.60;99.90;;;;;;4985305;28;20433;-39
2023/10/10 06:50:56;;;;;;;6.18;3.33;;;10.70;99.90;;;;;;4981947;28;20110;-32
2023/10/10 06:53:36;;;;;;;5.18;3.20;;;10.80;99.90;;;;;;4986535;28;20077;-39
2023/10/10 06:56:43;;;;;;;7.35;3.42;;;10.90;99.90;;;;;;4988348;28;20026;-39
2023/10/10 06:59:06;;;;;;;8.52;3.75;;;11.00;99.90;;;;;;4984041;28;20497;-40
2023/10/10 07:01:31;;;;;;;8.60;3.85;;;11.20;99.90;;;;;;4984928;28;20030;-32
2023/10/10 07:04:03;;;;;;;8.20;4.50;;;11.30;99.90;;;;;;4985440;28;20035;-33
2023/10/10 07:06:29;;;;;;;9.38;3.97;;;11.40;99.90;;;;;;4989241;28;20081;-34
2023/10/10 07:11:39;;;;;;;8.40;4.20;;;11.60;99.90;;;;;;4980514;28;20136;-34
2023/10/10 07:14:08;;;;;;;12.82;4.32;;;11.70;99.90;;;;;;4983619;28;20149;-33
2023/10/10 07:16:34;;;;;;;11.88;4.88;;;11.80;99.90;;;;;;4983549;28;20039;-33
2023/10/10 07:19:17;;;;;;;13.23;4.88;;;11.90;99.90;;;;;;4977679;28;20093;-32
2023/10/10 07:21:43;;;;;;;12.40;4.70;;;12.10;99.90;;;;;;4985460;28;20480;-33
2023/10/10 07:24:15;;;;;;;9.77;4.40;;;12.20;99.90;;;;;;4985301;28;20157;-33
2023/10/10 07:26:42;;;;;;;13.38;5.47;;;12.30;99.90;;;;;;4977758;28;20030;-34
2023/10/10 07:29:27;;;;;;;15.25;6.05;;;12.40;99.90;;;;;;4990074;28;20038;-32
2023/10/10 07:32:04;;;;;;;12.68;5.50;;;12.50;99.90;;;;;;4981186;28;20385;-33
2023/10/10 07:34:39;;;;;;;12.90;5.25;;;12.60;99.90;;;;;;4988670;28;20128;-33
2023/10/10 07:37:07;;;;;;;11.93;4.40;;;12.70;99.90;;;;;;4976345;28;20402;-32
2023/10/10 07:39:34;;;;;;;12.68;5.22;;;12.80;99.90;;;;;;4975892;28;20840;-32
2023/10/10 07:42:00;;;;;;;12.25;4.95;;;12.90;99.90;;;;;;4979713;28;20042;-32
2023/10/10 07:44:25;;;;;;;10.73;5.50;;;13.10;99.90;;;;;;4984037;28;20081;-34
2023/10/10 07:49:53;;;;;;;14.75;5.38;;;13.30;99.90;;;;;;4908732;29;20042;-32
2023/10/10 07:52:22;;;;;;;14.55;5.22;;;13.40;99.90;;;;;;4972102;28;20066;-34
2023/10/10 07:54:51;;;;;;;9.98;5.18;;;13.60;99.90;;;;;;4982488;28;20034;-33
2023/10/10 07:57:26;;;;;;;14.05;4.78;;;13.70;99.90;;;;;;4984014;28;20499;-32
2023/10/10 07:59:57;;;;;;;9.90;5.30;;;13.90;99.90;;;;;;4978229;28;20106;-32
2023/10/10 08:05:01;;;;;;;9.43;4.93;;;14.20;99.90;;;;;;4988628;28;20026;-29
2023/10/10 08:07:28;;;;;;;13.00;5.57;;;14.30;99.90;;;;;;4987502;28;20033;-32
2023/10/10 08:10:29;;;;;;;12.97;4.87;;;14.50;99.90;;;;;;4990158;28;20088;-32
2023/10/10 08:12:43;;;;;;;12.18;4.65;;;14.60;99.90;;;;;;4979649;28;20535;-32
2023/10/10 08:15:24;;;;;;;13.52;4.93;;;14.80;99.90;;;;;;4982624;28;20046;-31
2023/10/10 08:17:52;;;;;;;10.50;4.70;;;15.00;99.90;;;;;;4988047;28;20522;-29
2023/10/10 08:23:07;;;;;;;10.82;4.75;;;15.30;99.90;;;;;;4988811;28;20042;-34
2023/10/10 08:25:33;;;;;;;11.32;4.40;;;15.50;99.90;;;;;;4975434;28;20042;-29
2023/10/10 08:28:00;;;;;;;12.18;5.00;;;15.60;99.90;;;;;;4987112;28;20083;-29
2023/10/10 08:30:26;;;;;;;14.63;4.53;;;15.70;99.90;;;;;;4981197;28;20080;-29
2023/10/10 08:33:02;;;;;;;9.85;4.20;;;15.80;99.90;;;;;;4984679;28;20047;-32
2023/10/10 08:35:29;;;;;;;8.98;4.20;;;15.90;99.90;;;;;;4986247;28;20532;-29
2023/10/10 08:37:57;;;;;;;9.25;3.95;;;16.10;99.90;;;;;;4985382;28;20034;-29
2023/10/10 08:40:33;;;;;;;10.05;4.28;;;16.20;99.90;;;;;;4986140;28;20676;-29
2023/10/10 08:43:02;;;;;;;11.02;3.83;;;16.40;99.90;;;;;;4987473;28;20524;-30
2023/10/10 08:45:39;;;;;;;7.90;4.00;;;16.50;99.90;;;;;;4987890;28;20037;-30
2023/10/10 08:48:12;;;;;;;10.70;4.00;;;16.60;99.90;;;;;;4986703;28;20037;-29
2023/10/10 08:50:40;;;;;;;11.02;4.05;;;16.70;99.90;;;;;;4985193;28;20035;-30
2023/10/10 08:53:14;;;;;;;13.30;4.15;;;16.90;99.90;;;;;;4986747;28;20785;-30
2023/10/10 08:55:40;;;;;;;6.68;3.10;;;17.00;99.90;;;;;;4981962;28;20091;-31
2023/10/10 08:58:07;;;;;;;8.20;4.30;;;17.10;99.90;;;;;;4987127;28;20144;-30
2023/10/10 09:00:34;;;;;;;13.93;3.95;;;17.20;99.90;;;;;;4988234;28;20022;-33
2023/10/10 09:03:00;;;;;;;12.82;4.22;;;17.30;99.90;;;;;;4986641;28;20037;-30
2023/10/10 09:05:29;;;;;;;11.93;4.18;;;17.50;99.90;;;;;;4985616;28;20027;-33
2023/10/10 09:07:55;;;;;;;11.13;4.32;;;17.60;99.90;;;;;;4989398;28;20054;-30
2023/10/10 09:10:39;;;;;;;10.80;3.40;;;17.70;99.90;;;;;;4986233;28;20042;-31
2023/10/10 09:13:07;;;;;;;8.70;3.63;;;17.80;99.90;;;;;;4987349;28;20034;-36
2023/10/10 09:15:34;;;;;;;10.25;3.30;;;18.00;99.90;;;;;;4979549;28;20058;-39
2023/10/10 09:18:14;;;;;;;9.82;3.40;;;18.20;99.90;;;;;;4979439;28;20121;-39
2023/10/10 09:20:40;;;;;;;12.32;3.80;;;18.30;99.90;;;;;;4979572;28;20026;-34
2023/10/10 09:23:22;;;;;;;9.98;3.20;;;18.50;99.90;;;;;;4979862;28;20034;-36
2023/10/10 09:25:57;;;;;;;9.88;4.45;;;18.70;99.90;;;;;;4986954;28;20034;-41
2023/10/10 09:28:30;;;;;;;11.13;3.40;;;18.70;99.90;;;;;;4985471;28;20060;-40
2023/10/10 09:31:03;;;;;;;8.35;3.28;;;18.80;99.90;;;;;;4982986;28;20596;-37
2023/10/10 09:36:08;;;;;;;7.85;3.35;;;19.10;99.90;;;;;;4988876;28;20022;-42
2023/10/10 09:38:35;;;;;;;10.23;3.42;;;19.20;99.90;;;;;;4986855;28;20756;-39
2023/10/10 09:41:11;;;;;;;5.63;2.85;;;19.40;99.90;;;;;;4984211;28;20944;-38
2023/10/10 09:43:50;;;;;;;8.75;3.13;;;19.50;99.90;;;;;;4988568;28;20037;-40
2023/10/10 09:46:25;;;;;;;9.48;2.75;;;19.70;99.90;;;;;;4988552;28;20070;-39
2023/10/10 09:52:49;;;;;;;12.80;3.60;;;20.00;99.90;;;;;;4978747;28;20110;-39
2023/10/10 09:54:18;;;;;;;9.65;3.50;;;20.00;99.90;;;;;;4985015;28;20385;-39
2023/10/10 09:56:48;;;;;;;10.00;3.90;;;20.00;99.90;;;;;;4981606;28;20030;-38
2023/10/10 09:59:20;;;;;;;13.88;5.13;;;20.10;99.90;;;;;;4983670;28;20101;-38
2023/10/10 10:01:59;;;;;;;10.70;4.53;;;20.10;99.90;;;;;;4986950;28;20038;-40
2023/10/10 10:04:28;;;;;;;9.30;3.45;;;20.20;99.90;;;;;;4986311;28;20053;-34
2023/10/10 10:07:23;;;;;;;13.65;3.35;;;20.30;99.90;;;;;;4991131;28;20472;-37
2023/10/10 10:10:00;;;;;;;13.20;3.53;;;20.50;99.90;;;;;;4988272;28;20050;-40
2023/10/10 10:12:36;;;;;;;12.25;3.35;;;20.50;99.90;;;;;;4986014;28;20038;-35
2023/10/10 10:15:18;;;;;;;8.38;3.28;;;20.50;99.90;;;;;;4985577;28;20246;-41
2023/10/10 10:18:10;;;;;;;8.63;3.08;;;20.60;99.90;;;;;;4984577;28;20022;-32
2023/10/10 10:21:03;;;;;;;12.07;2.95;;;20.70;99.90;;;;;;4983977;28;20551;-42
2023/10/10 10:23:33;;;;;;;8.68;3.15;;;20.90;99.90;;;;;;4982344;28;20058;-34
2023/10/10 10:26:11;;;;;;;8.70;2.80;;;21.10;99.90;;;;;;4979672;28;20030;-30
2023/10/10 10:28:56;;;;;;;12.43;3.05;;;21.10;99.90;;;;;;4983662;28;20034;-33
2023/10/10 10:31:29;;;;;;;9.80;3.50;;;21.30;99.90;;;;;;4979647;28;20031;-40
2023/10/10 10:34:16;;;;;;;7.93;3.53;;;21.50;99.90;;;;;;4976992;28;20026;-39
2023/10/10 10:36:50;;;;;;;9.43;2.88;;;21.40;99.90;;;;;;4988309;28;20035;-36
2023/10/10 10:39:23;;;;;;;11.48;2.80;;;21.40;99.90;;;;;;4980074;28;20026;-41
2023/10/10 10:41:58;;;;;;;11.00;2.65;;;21.40;99.90;;;;;;4982838;28;20054;-41
2023/10/10 10:44:58;;;;;;;12.60;3.72;;;21.40;99.90;;;;;;4981452;28;20061;-34
2023/10/10 10:47:39;;;;;;;14.05;3.05;;;21.50;99.90;;;;;;4987799;28;20449;-40
2023/10/10 10:50:18;;;;;;;7.80;3.22;;;21.50;99.90;;;;;;4985161;28;20026;-38
2023/10/10 10:52:57;;;;;;;8.90;2.88;;;21.60;99.90;;;;;;4987625;28;20060;-38
2023/10/10 10:55:29;;;;;;;9.60;2.50;;;21.50;99.90;;;;;;4986887;28;20130;-33
2023/10/10 10:58:20;;;;;;;12.80;4.60;;;21.60;99.90;;;;;;4985646;28;20026;-36
2023/10/10 11:03:34;;;;;;;8.00;3.03;;;21.60;99.90;;;;;;4979701;28;20073;-33
2023/10/10 11:06:01;;;;;;;10.10;2.90;;;21.50;99.90;;;;;;4984845;28;20029;-41
2023/10/10 11:14:25;;;;;;;9.13;3.08;;;21.70;99.90;;;;;;4982565;28;20030;-39
2023/10/10 11:16:57;;;;;;;9.60;3.40;;;21.80;99.90;;;;;;4983314;28;20039;-41
2023/10/10 11:22:00;;;;;;;8.25;2.95;;;21.80;99.90;;;;;;4977157;28;20237;-33
2023/10/10 11:24:29;;;;;;;9.77;3.67;;;21.90;99.90;;;;;;4979232;28;20098;-34
2023/10/10 11:29:44;;;;;;;10.68;3.40;;;21.90;99.90;;;;;;4984157;28;20030;-40
2023/10/10 11:32:12;;;;;;;12.50;4.45;;;21.80;99.90;;;;;;4984706;28;20041;-41
2023/10/10 11:34:44;;;;;;;14.23;3.47;;;21.90;99.90;;;;;;4981531;28;20534;-39
2023/10/10 11:37:17;;;;;;;9.65;2.92;;;22.00;99.90;;;;;;4983722;28;20042;-39
2023/10/10 11:39:57;;;;;;;11.32;3.88;;;21.90;99.90;;;;;;4976959;28;20035;-38
2023/10/10 11:42:26;;;;;;;7.40;3.10;;;21.80;99.90;;;;;;4980109;28;20030;-31
2023/10/10 11:45:18;;;;;;;9.45;2.90;;;21.90;99.90;;;;;;4980831;28;20046;-31
2023/10/10 11:47:45;;;;;;;12.32;3.03;;;22.00;99.90;;;;;;4988959;28;20038;-33
2023/10/10 11:50:19;;;;;;;10.05;3.10;;;21.90;99.90;;;;;;4982462;28;20109;-32
2023/10/10 11:52:58;;;;;;;6.70;2.83;;;22.00;99.90;;;;;;4980750;28;20069;-32
2023/10/10 11:55:24;;;;;;;9.40;2.95;;;21.90;99.90;;;;;;4985293;28;20057;-31
2023/10/10 11:57:51;;;;;;;7.28;2.75;;;21.90;99.90;;;;;;4983283;28;20023;-31
2023/10/10 12:00:29;;;;;;;13.27;2.78;;;21.90;99.90;;;;;;4980264;28;20464;-31
2023/10/10 12:02:58;;;;;;;7.05;2.90;;;21.90;99.90;;;;;;4981227;28;20122;-32
2023/10/10 12:07:58;;;;;;;8.68;3.25;;;22.00;99.90;;;;;;4984062;28;20030;-32
2023/10/10 12:10:39;;;;;;;11.57;3.00;;;22.00;99.90;;;;;;4984987;28;20049;-36
2023/10/10 12:13:09;;;;;;;11.25;3.50;;;22.00;99.90;;;;;;4979405;28;20046;-32
2023/10/10 12:15:40;;;;;;;9.27;2.97;;;22.10;99.90;;;;;;4979841;28;20041;-32
2023/10/10 12:18:13;;;;;;;9.35;3.20;;;22.20;99.90;;;;;;4978236;28;20033;-34
2023/10/10 12:20:43;;;;;;;10.55;3.03;;;22.20;99.90;;;;;;4982372;28;20442;-33
2023/10/10 12:23:12;;;;;;;15.40;3.17;;;22.30;99.90;;;;;;4979971;28;20108;-34
2023/10/10 12:25:41;;;;;;;9.98;3.10;;;22.20;99.90;;;;;;4981916;28;20046;-33
2023/10/10 12:28:10;;;;;;;7.82;3.00;;;22.30;99.90;;;;;;4980234;28;20030;-34
2023/10/10 12:30:41;;;;;;;9.90;2.95;;;22.30;99.90;;;;;;4983290;28;20476;-33
2023/10/10 12:33:15;;;;;;;9.90;3.33;;;22.30;99.90;;;;;;4982457;28;20026;-33
2023/10/10 12:35:43;;;;;;;8.73;2.72;;;22.30;99.90;;;;;;4979105;28;20038;-36
2023/10/10 12:38:10;;;;;;;9.73;3.45;;;22.30;99.90;;;;;;4986994;28;20030;-35
2023/10/10 12:40:36;;;;;;;11.25;3.28;;;22.30;99.90;;;;;;4984381;28;20030;-32
2023/10/10 12:43:01;;;;;;;9.35;3.58;;;22.30;99.90;;;;;;4981888;28;20048;-39
2023/10/10 12:45:32;;;;;;;8.73;2.92;;;22.20;99.90;;;;;;4984877;28;20073;-38
2023/10/10 12:47:59;;;;;;;6.38;2.97;;;22.30;99.90;;;;;;4986727;28;20043;-39
2023/10/10 12:50:28;;;;;;;8.68;3.63;;;22.20;99.90;;;;;;4978763;28;20061;-38
2023/10/10 12:53:07;;;;;;;10.90;3.25;;;22.20;99.90;;;;;;4975317;28;20045;-31
2023/10/10 12:55:37;;;;;;;10.80;3.40;;;22.20;99.90;;;;;;4981763;28;20037;-30
2023/10/10 12:58:15;;;;;;;9.98;3.08;;;22.20;99.90;;;;;;5007612;28;20034;-31
2023/10/10 13:00:50;;;;;;;12.40;3.47;;;22.20;99.90;;;;;;4988687;28;20014;-35
2023/10/10 13:03:27;;;;;;;10.30;3.25;;;22.20;99.90;;;;;;4992619;28;20395;-30
2023/10/10 13:05:58;;;;;;;12.95;3.00;;;22.30;99.90;;;;;;4986237;28;20070;-30
2023/10/10 13:08:25;;;;;;;13.02;3.28;;;22.20;99.90;;;;;;4994083;28;20125;-34
2023/10/10 13:11:00;;;;;;;11.02;3.63;;;22.20;99.90;;;;;;4991100;28;20041;-30
2023/10/10 13:13:27;;;;;;;10.05;2.80;;;22.20;99.90;;;;;;4986927;28;20030;-30
2023/10/10 13:16:22;;;;;;;10.73;2.97;;;22.10;99.90;;;;;;4985341;28;20053;-29
2023/10/10 13:18:48;;;;;;;12.55;3.28;;;22.10;99.90;;;;;;4988595;28;20121;-30
2023/10/10 13:21:15;;;;;;;9.18;4.10;;;22.10;99.90;;;;;;4986876;28;20722;-30
2023/10/10 13:23:43;;;;;;;10.27;2.70;;;22.20;99.90;;;;;;4985973;28;20093;-30
2023/10/10 13:26:09;;;;;;;10.38;3.20;;;22.20;99.90;;;;;;4981570;28;20066;-32
2023/10/10 13:28:36;;;;;;;13.93;3.20;;;22.30;99.90;;;;;;4993380;28;20108;-31
2023/10/10 13:31:02;;;;;;;14.02;3.30;;;22.40;99.90;;;;;;4989099;28;20046;-30
2023/10/10 13:33:28;;;;;;;10.68;2.92;;;22.40;99.90;;;;;;4988284;28;20112;-31
2023/10/10 13:35:54;;;;;;;8.05;3.03;;;22.40;99.90;;;;;;4982370;28;20038;-33
2023/10/10 13:38:20;;;;;;;10.75;3.17;;;22.40;99.90;;;;;;4985124;28;20113;-30
2023/10/10 13:40:46;;;;;;;10.88;2.80;;;22.40;99.90;;;;;;4982806;28;20030;-30
2023/10/10 13:43:17;;;;;;;9.63;3.08;;;22.50;99.90;;;;;;4985027;28;20044;-31
2023/10/10 13:45:51;;;;;;;13.77;3.40;;;22.50;99.90;;;;;;4994263;28;20034;-31
2023/10/10 13:48:23;;;;;;;10.82;2.60;;;22.50;99.90;;;;;;4999966;28;20919;-30
2023/10/10 13:50:54;;;;;;;13.68;3.05;;;22.50;99.90;;;;;;4983143;28;20041;-32
2023/10/10 13:53:20;;;;;;;6.55;2.33;;;22.60;99.90;;;;;;4987585;28;20396;-33
2023/10/10 13:55:46;;;;;;;11.60;3.08;;;22.60;99.90;;;;;;4985102;28;20658;-32
2023/10/10 13:58:13;;;;;;;12.32;2.95;;;22.70;99.90;;;;;;4989679;28;20030;-32
2023/10/10 14:00:42;;;;;;;13.77;3.10;;;22.70;99.90;;;;;;4988959;28;20019;-36
2023/10/10 14:03:08;;;;;;;13.80;3.65;;;22.70;99.90;;;;;;4989421;28;20300;-31
2023/10/10 14:05:41;;;;;;;12.52;3.05;;;22.70;99.90;;;;;;4993402;28;20113;-31
2023/10/10 14:08:10;;;;;;;10.38;3.15;;;22.70;99.90;;;;;;4990668;28;20772;-32
2023/10/10 14:10:41;;;;;;;8.07;2.65;;;22.60;99.90;;;;;;4985776;28;20060;-32
2023/10/10 14:13:19;;;;;;;15.73;2.88;;;22.60;99.90;;;;;;4983089;28;20560;-30
2023/10/10 14:16:00;;;;;;;8.80;2.55;;;22.50;99.90;;;;;;4985113;28;20495;-30
2023/10/10 14:18:42;;;;;;;10.10;2.55;;;22.50;99.90;;;;;;4985272;28;20045;-31
2023/10/10 14:21:12;;;;;;;15.88;2.95;;;22.50;99.90;;;;;;4980268;28;20033;-31
2023/10/10 14:23:39;;;;;;;12.55;3.17;;;22.50;99.90;;;;;;4994444;28;20384;-31
2023/10/10 14:26:12;;;;;;;11.68;3.03;;;22.40;99.90;;;;;;4985879;28;20041;-29
2023/10/10 14:28:52;;;;;;;12.65;3.10;;;22.40;99.90;;;;;;4985047;28;20088;-30
2023/10/10 14:31:27;;;;;;;10.43;2.90;;;22.40;99.90;;;;;;4983758;28;20042;-32
2023/10/10 14:33:59;;;;;;;11.35;2.80;;;22.30;99.90;;;;;;4981763;28;20481;-30
2023/10/10 14:36:26;;;;;;;14.30;3.33;;;22.30;99.90;;;;;;4983781;28;20037;-33
2023/10/10 14:38:52;;;;;;;11.68;3.08;;;22.30;99.90;;;;;;4991927;28;20031;-30
2023/10/10 14:41:22;;;;;;;13.60;2.90;;;22.20;99.90;;;;;;4987711;28;20491;-31
2023/10/10 14:43:50;;;;;;;9.27;3.03;;;22.20;99.90;;;;;;4992968;28;20532;-30
2023/10/10 14:46:23;;;;;;;10.93;2.58;;;22.20;99.90;;;;;;4980118;28;20034;-30
2023/10/10 14:49:05;;;;;;;12.15;3.78;;;22.20;99.90;;;;;;4983184;28;20038;-30
2023/10/10 14:51:36;;;;;;;7.45;3.63;;;22.10;99.90;;;;;;4983089;28;20483;-30
2023/10/10 14:54:12;;;;;;;13.18;2.83;;;22.10;99.90;;;;;;4980974;28;20030;-30
2023/10/10 14:56:50;;;;;;;10.93;3.03;;;22.10;99.90;;;;;;4988388;28;20026;-33
2023/10/10 14:59:31;;;;;;;7.40;2.70;;;22.00;99.90;;;;;;4991081;28;20387;-30
2023/10/10 15:02:01;;;;;;;11.05;2.60;;;22.00;99.90;;;;;;4983156;28;20035;-32
2023/10/10 15:04:31;;;;;;;12.65;2.95;;;22.00;99.90;;;;;;4977778;28;20019;-34
2023/10/10 15:06:58;;;;;;;12.63;3.13;;;22.00;99.90;;;;;;4981731;28;20420;-32
2023/10/10 15:09:25;;;;;;;13.40;3.25;;;22.00;99.90;;;;;;4976541;28;20396;-32
2023/10/10 15:11:52;;;;;;;8.23;2.75;;;21.90;99.90;;;;;;4989224;28;20050;-41
2023/10/10 15:14:21;;;;;;;8.40;2.90;;;21.90;99.90;;;;;;4985200;28;20050;-42
2023/10/10 15:16:48;;;;;;;12.27;2.92;;;21.80;99.90;;;;;;4983614;28;20078;-37
2023/10/10 15:19:14;;;;;;;9.05;2.70;;;21.80;99.90;;;;;;4984789;28;20049;-40
2023/10/10 15:21:40;;;;;;;9.82;2.72;;;21.70;99.90;;;;;;4986733;28;20451;-38
2023/10/10 15:24:11;;;;;;;9.75;2.70;;;21.70;99.90;;;;;;4980137;28;20027;-35
2023/10/10 15:26:37;;;;;;;17.08;3.97;;;21.60;99.90;;;;;;4982131;28;20396;-34
2023/10/10 15:29:03;;;;;;;9.00;3.05;;;21.60;99.90;;;;;;4981375;28;20026;-32
2023/10/10 15:31:32;;;;;;;7.15;2.88;;;21.50;99.90;;;;;;4976284;28;20564;-33
2023/10/10 15:33:58;;;;;;;10.93;3.35;;;21.40;99.90;;;;;;4979117;28;20033;-32
2023/10/10 15:36:30;;;;;;;10.02;2.97;;;21.40;99.90;;;;;;4985437;28;20030;-33
2023/10/10 15:39:05;;;;;;;12.43;4.50;;;21.40;99.90;;;;;;4985951;28;20026;-32
2023/10/10 15:41:32;;;;;;;10.35;2.80;;;21.30;99.90;;;;;;4983796;28;20040;-32
2023/10/10 15:44:02;;;;;;;8.18;4.43;;;21.30;99.90;;;;;;4983526;28;20101;-32